Anderson, Alabama
Current Conditions -  °F | °C
As of 9:53 AM on Thursday 29 Jan 2015 (Local Time) from KMSL Reporting Station
Clear Clear  
Wind Chill: 55°   Ceiling: Unl
Heat Index: 55°   Visibility: 10mi
Dew Point: 34°   Wind: 21mph
Humidity: 45%   Direction: 220°SW
Pressure: 30.14"   Gusts: 26mph
Location:  34.93°N, 87.27°W
Report Text: KMSL 291553Z AUTO 22018G23KT 10SM CLR 13/01 A3014 RMK AO2 SLP206 T01280011
Loading
Personal Weather Stations






























Interactive Weather Map New forecast layout! Learn more

10-Day Weather Forecast

Advertisements
Track Severe Weather on mobile